Time;durP1;ratioP1;P1;durP2;ratioP2;P2;SDS_P1;SDS_P2;PMS_P1;PMS_P2;Temp;Humidity;BMP_temperature;BMP_pressure;BME280_temperature;BME280_humidity;BME280_pressure;Samples;Min_cycle;Max_cycle;Signal;HPM_P1;HPM_P2
2021/12/21 00:00:46;;;;;;;6.45;2.20;;;;;;;1.30;58.89;99058.78;4486365;32;20116;-86
2021/12/21 00:03:11;;;;;;;7.00;2.08;;;;;;;1.04;59.46;99056.50;4486029;32;20111;-86
2021/12/21 00:05:37;;;;;;;5.93;1.90;;;;;;;1.12;59.52;99051.22;4485827;32;20088;-84
2021/12/21 00:08:06;;;;;;;6.25;1.98;;;;;;;1.02;59.52;99057.41;4471695;32;20126;-85
2021/12/21 00:10:33;;;;;;;6.87;2.15;;;;;;;1.13;58.88;99053.81;4484759;32;20242;-87
2021/12/21 00:18:22;;;;;;;5.18;1.60;;;;;;;0.96;57.86;99084.28;4485327;31;20096;-87
2021/12/21 00:25:55;;;;;;;6.00;1.60;;;;;;;0.95;56.62;99065.25;4487416;31;20151;-89
2021/12/21 00:28:20;;;;;;;4.35;1.35;;;;;;;0.97;56.09;99073.88;4486296;32;20088;-82
2021/12/21 00:30:47;;;;;;;5.82;1.42;;;;;;;1.05;55.36;99076.38;4487905;31;20112;-80
2021/12/21 00:33:13;;;;;;;6.87;1.77;;;;;;;1.04;55.32;99064.28;4487813;31;20168;-83
2021/12/21 00:35:38;;;;;;;5.53;1.60;;;;;;;1.26;54.37;99080.47;4486566;31;20104;-84
2021/12/21 00:38:04;;;;;;;4.12;1.40;;;;;;;0.93;54.55;99087.78;4491055;31;20118;-83
2021/12/21 00:40:31;;;;;;;3.15;1.20;;;;;;;0.97;54.42;99097.22;4493044;31;20160;-83
2021/12/21 00:42:57;;;;;;;4.53;1.48;;;;;;;0.76;54.53;99097.47;4486362;32;20135;-82
2021/12/21 00:45:22;;;;;;;4.35;1.50;;;;;;;0.75;54.30;99100.91;4485835;32;20427;-85
2021/12/21 00:47:49;;;;;;;5.10;1.60;;;;;;;1.03;53.64;99117.06;4471675;32;20092;-87
2021/12/21 00:50:17;;;;;;;4.55;1.50;;;;;;;0.94;53.35;99102.44;4487296;31;20169;-82
2021/12/21 00:52:48;;;;;;;5.70;1.65;;;;;;;0.75;53.84;99104.38;4486093;32;20416;-86
2021/12/21 00:55:13;;;;;;;5.25;1.40;;;;;;;0.80;53.41;99114.69;4487686;31;20137;-80
2021/12/21 00:57:39;;;;;;;4.28;1.30;;;;;;;0.70;53.49;99118.28;4487550;31;20104;-81
2021/12/21 01:00:06;;;;;;;5.57;1.45;;;;;;;0.83;53.32;99127.66;4487829;31;20096;-85
2021/12/21 01:02:32;;;;;;;4.78;1.50;;;;;;;0.65;53.63;99133.84;4487947;31;20104;-83
2021/12/21 01:04:58;;;;;;;5.00;1.40;;;;;;;0.51;54.22;99146.94;4473307;32;20107;-84
2021/12/21 01:07:32;;;;;;;4.85;1.45;;;;;;;0.52;54.25;99150.38;4473887;32;20455;-84
2021/12/21 01:10:49;;;;;;;5.12;1.52;;;;;;;0.57;54.16;99161.56;4488149;32;20130;-84
2021/12/21 01:13:09;;;;;;;6.05;1.75;;;;;;;0.54;54.22;99164.19;4481394;32;20118;-85
2021/12/21 01:18:10;;;;;;;5.55;1.62;;;;;;;0.70;53.75;99159.75;4471602;32;20442;-85
2021/12/21 01:20:49;;;;;;;5.80;1.77;;;;;;;0.68;54.01;99166.69;4474584;32;20106;-84
2021/12/21 01:28:41;;;;;;;4.62;1.62;;;;;;;0.72;53.85;99176.16;4491297;31;20455;-85
2021/12/21 01:31:28;;;;;;;4.87;1.70;;;;;;;0.54;54.26;99171.97;4481204;31;20459;-85
2021/12/21 01:34:08;;;;;;;4.90;1.40;;;;;;;0.61;54.16;99177.97;4503213;31;20087;-86
2021/12/21 01:36:41;;;;;;;4.78;1.70;;;;;;;0.69;54.08;99181.34;4486318;32;20108;-85
2021/12/21 01:39:42;;;;;;;5.78;1.58;;;;;;;0.61;53.98;99183.16;4473596;32;20100;-86
2021/12/21 01:42:10;;;;;;;5.43;1.62;;;;;;;0.21;55.04;99199.84;4477027;32;20479;-85
2021/12/21 01:49:51;;;;;;;5.57;1.62;;;;;;;0.21;55.05;99214.53;4475588;32;20115;-86
2021/12/21 01:52:24;;;;;;;7.60;1.80;;;;;;;0.35;54.41;99205.81;4473405;32;20100;-86
2021/12/21 01:54:50;;;;;;;4.62;1.23;;;;;;;0.57;53.97;99203.91;4460225;32;20483;-86
2021/12/21 01:57:15;;;;;;;7.10;1.52;;;;;;;0.41;54.06;99210.09;4463054;31;20148;-86
2021/12/21 01:59:43;;;;;;;5.03;1.48;;;;;;;0.34;54.48;99206.66;4488880;31;20099;-86
2021/12/21 02:02:10;;;;;;;4.45;1.25;;;;;;;0.28;54.22;99217.06;4482075;32;20123;-86
2021/12/21 02:04:37;;;;;;;5.93;1.73;;;;;;;0.02;54.78;99218.94;4487541;32;20474;-86
2021/12/21 02:07:03;;;;;;;7.15;1.87;;;;;;;0.50;53.73;99211.75;4487511;32;20116;-85
2021/12/21 02:09:37;;;;;;;6.85;1.52;;;;;;;0.47;53.42;99209.19;4473109;32;20080;-86
2021/12/21 02:12:05;;;;;;;5.55;1.50;;;;;;;0.65;52.94;99209.03;4487451;32;20100;-86
2021/12/21 02:14:32;;;;;;;6.20;1.27;;;;;;;0.20;53.80;99203.31;4487442;32;20088;-87
2021/12/21 02:17:20;;;;;;;4.62;1.35;;;;;;;0.02;54.30;99201.69;4473367;32;20115;-86
2021/12/21 02:20:05;;;;;;;6.18;1.77;;;;;;;-0.08;54.37;99208.66;4486919;32;20115;-86
2021/12/21 02:22:34;;;;;;;6.30;1.77;;;;;;;0.19;53.75;99206.75;4474039;32;20206;-84
2021/12/21 02:25:20;;;;;;;7.50;1.67;;;;;;;0.07;53.79;99222.38;4487358;32;20092;-85
2021/12/21 02:27:56;;;;;;;4.20;1.50;;;;;;;0.34;52.82;99222.22;4487135;32;20443;-86
2021/12/21 02:30:23;;;;;;;5.68;1.60;;;;;;;0.16;53.08;99225.78;4487393;32;20135;-86
2021/12/21 02:32:49;;;;;;;5.90;1.60;;;;;;;0.17;52.60;99203.31;4459975;32;20161;-86
2021/12/21 02:35:14;;;;;;;5.97;1.50;;;;;;;0.09;52.63;99202.50;4473179;32;20145;-85
2021/12/21 02:37:39;;;;;;;4.12;1.10;;;;;;;0.33;52.01;99198.91;4472961;32;20468;-86
2021/12/21 02:40:06;;;;;;;5.00;1.40;;;;;;;0.17;52.16;99201.59;4487214;32;20084;-86
2021/12/21 02:42:32;;;;;;;3.90;1.30;;;;;;;0.09;52.24;99212.88;4473006;32;20126;-86
2021/12/21 02:44:57;;;;;;;4.22;1.40;;;;;;;0.20;52.18;99213.69;4472338;32;20364;-86
2021/12/21 02:47:23;;;;;;;7.87;1.70;;;;;;;0.19;51.88;99218.00;4472419;32;20114;-86
2021/12/21 02:49:49;;;;;;;5.80;1.50;;;;;;;0.15;52.09;99216.28;4487383;32;20064;-87
2021/12/21 02:52:14;;;;;;;3.60;1.20;;;;;;;0.19;51.93;99227.47;4473246;32;20153;-85
2021/12/21 02:54:40;;;;;;;5.45;1.35;;;;;;;0.02;52.31;99225.00;4487549;32;20112;-85
2021/12/21 02:57:05;;;;;;;3.80;1.35;;;;;;;0.02;52.41;99229.31;4473109;32;20092;-85
2021/12/21 02:59:31;;;;;;;5.85;1.40;;;;;;;0.07;52.44;99227.56;4487326;32;20076;-86
2021/12/21 03:01:56;;;;;;;2.75;1.17;;;;;;;0.22;52.04;99226.63;4487322;32;20120;-87
2021/12/21 03:04:22;;;;;;;5.62;1.40;;;;;;;0.16;51.97;99233.56;4472841;32;20092;-86
2021/12/21 03:09:43;;;;;;;4.10;1.10;;;;;;;0.09;52.20;99234.44;4474949;32;20488;-87
2021/12/21 03:14:57;;;;;;;5.15;1.27;;;;;;;0.06;52.21;99239.66;4396892;32;20110;-90
2021/12/21 03:17:22;;;;;;;4.47;1.42;;;;;;;0.13;52.18;99237.88;4394534;32;20224;-88
2021/12/21 03:19:48;;;;;;;3.33;1.35;;;;;;;0.33;51.85;99245.56;4407203;32;20124;-88
2021/12/21 03:22:14;;;;;;;5.43;1.40;;;;;;;0.42;51.43;99247.22;4408336;32;20494;-88
2021/12/21 03:24:42;;;;;;;4.20;1.30;;;;;;;0.43;51.29;99256.75;4394552;32;20122;-88
2021/12/21 03:27:08;;;;;;;3.22;1.08;;;;;;;0.49;51.01;99251.50;4407277;32;20402;-89
2021/12/21 03:29:34;;;;;;;2.92;1.30;;;;;;;0.47;51.00;99248.91;4407137;32;20078;-88
2021/12/21 03:32:01;;;;;;;5.00;1.30;;;;;;;0.40;51.09;99252.41;4394475;32;20141;-88
2021/12/21 03:34:26;;;;;;;5.25;1.45;;;;;;;0.21;51.46;99248.22;4394845;32;20466;-88
2021/12/21 03:36:52;;;;;;;4.12;1.35;;;;;;;0.57;50.69;99257.50;4394384;32;20141;-88
2021/12/21 03:39:19;;;;;;;5.12;1.20;;;;;;;0.26;51.25;99256.81;4407066;32;20413;-88
2021/12/21 03:41:54;;;;;;;3.37;1.37;;;;;;;0.35;51.08;99269.75;4394649;32;20178;-88
2021/12/21 03:44:21;;;;;;;2.92;1.15;;;;;;;-0.14;51.85;99257.84;4394968;32;20163;-88
2021/12/21 03:46:49;;;;;;;4.25;1.30;;;;;;;0.12;51.72;99260.34;4394190;32;20134;-88
2021/12/21 03:50:01;;;;;;;4.75;1.12;;;;;;;0.06;51.62;99267.28;4394789;32;20627;-88
2021/12/21 03:52:10;;;;;;;3.80;1.10;;;;;;;0.07;51.48;99271.59;4433386;32;20131;-88
2021/12/21 03:54:36;;;;;;;5.03;1.50;;;;;;;-0.14;51.52;99262.19;4472381;32;20165;-88
2021/12/21 03:57:03;;;;;;;5.57;1.23;;;;;;;0.13;51.01;99280.19;4486348;32;20183;-88
2021/12/21 03:59:28;;;;;;;5.55;1.40;;;;;;;0.12;50.81;99267.25;4472264;32;20118;-88
2021/12/21 04:01:54;;;;;;;3.72;1.08;;;;;;;-0.06;51.59;99279.44;4472195;32;20448;-88
2021/12/21 04:04:22;;;;;;;2.92;0.93;;;;;;;-0.15;51.74;99284.63;4486398;32;20161;-89
2021/12/21 04:06:47;;;;;;;4.93;1.45;;;;;;;-0.07;51.46;99267.34;4486476;32;20227;-89
2021/12/21 04:09:13;;;;;;;4.82;1.17;;;;;;;0.07;51.28;99275.03;4486269;32;20114;-88
2021/12/21 04:11:39;;;;;;;4.50;1.02;;;;;;;0.10;51.07;99274.19;4472087;32;20453;-89
2021/12/21 04:14:05;;;;;;;3.55;1.00;;;;;;;0.00;50.99;99275.97;4486237;32;20428;-89
2021/12/21 04:16:30;;;;;;;4.80;1.40;;;;;;;0.01;50.91;99272.47;4486264;32;20119;-89
2021/12/21 04:18:56;;;;;;;4.30;1.30;;;;;;;0.15;50.57;99268.09;4486132;32;20084;-89
2021/12/21 04:21:21;;;;;;;3.95;1.33;;;;;;;0.07;50.53;99272.44;4471936;32;20155;-88
2021/12/21 04:23:47;;;;;;;3.37;1.20;;;;;;;0.20;50.20;99270.69;4471910;32;20105;-88
2021/12/21 04:26:14;;;;;;;3.65;1.20;;;;;;;0.33;49.82;99277.53;4458786;32;20447;-88
2021/12/21 04:28:40;;;;;;;3.50;1.25;;;;;;;0.07;49.91;99292.31;4471858;32;20234;-88
2021/12/21 04:31:06;;;;;;;2.78;0.98;;;;;;;0.12;49.62;99285.41;4458663;32;20395;-89
2021/12/21 04:33:33;;;;;;;4.00;1.10;;;;;;;0.54;49.10;99288.62;4471866;32;20108;-87
2021/12/21 04:35:58;;;;;;;3.75;1.10;;;;;;;0.45;48.87;99281.78;4471672;32;20478;-88
2021/12/21 04:38:28;;;;;;;3.00;0.90;;;;;;;0.02;49.15;99289.75;4471578;32;20085;-89
2021/12/21 04:41:04;;;;;;;3.47;1.08;;;;;;;0.47;48.37;99289.53;4472222;32;20112;-87
2021/12/21 04:43:29;;;;;;;3.40;1.27;;;;;;;0.04;48.78;99292.31;4472555;32;20112;-88
2021/12/21 04:45:55;;;;;;;4.28;1.27;;;;;;;0.12;48.82;99290.59;4471291;32;20119;-87
2021/12/21 04:48:21;;;;;;;3.90;1.00;;;;;;;0.14;48.98;99301.81;4485907;32;20077;-88
2021/12/21 04:50:46;;;;;;;3.55;1.30;;;;;;;0.28;48.23;99309.50;4471506;32;20108;-87
2021/12/21 04:53:12;;;;;;;6.62;1.30;;;;;;;0.08;48.70;99310.44;4458431;32;20191;-88
2021/12/21 04:55:38;;;;;;;3.87;1.20;;;;;;;0.16;48.24;99307.84;4485592;32;20356;-88
2021/12/21 04:58:04;;;;;;;4.22;1.12;;;;;;;0.25;48.13;99312.09;4471415;32;20119;-87
2021/12/21 05:00:29;;;;;;;4.82;1.10;;;;;;;0.34;48.07;99317.25;4471400;32;20163;-87
2021/12/21 05:02:55;;;;;;;4.22;1.25;;;;;;;0.10;48.52;99323.41;4471360;32;20162;-87
2021/12/21 05:05:21;;;;;;;5.47;0.98;;;;;;;0.22;48.39;99327.69;4472175;32;20084;-87
2021/12/21 05:07:51;;;;;;;3.30;1.12;;;;;;;-0.13;49.08;99326.06;4471460;32;20085;-87
2021/12/21 05:10:18;;;;;;;4.05;1.15;;;;;;;0.15;48.89;99325.09;4487547;32;20615;-89
2021/12/21 05:12:44;;;;;;;4.87;1.10;;;;;;;0.03;48.83;99327.72;4473933;32;20167;-88
2021/12/21 05:15:09;;;;;;;5.10;1.33;;;;;;;0.43;48.21;99331.91;4460568;32;20489;-90
2021/12/21 05:17:35;;;;;;;4.47;1.20;;;;;;;0.16;48.15;99332.00;4473561;32;20428;-90
2021/12/21 05:20:00;;;;;;;4.93;1.05;;;;;;;0.63;47.59;99335.22;4487844;32;20444;-90
2021/12/21 05:22:27;;;;;;;3.90;1.37;;;;;;;0.32;47.86;99343.16;4460588;32;20107;-89
2021/12/21 05:24:52;;;;;;;6.22;1.45;;;;;;;0.23;48.04;99339.75;4473537;32;20610;-87
2021/12/21 05:27:18;;;;;;;4.70;1.12;;;;;;;0.17;48.17;99349.28;4487785;32;20069;-88
2021/12/21 05:29:44;;;;;;;3.87;1.20;;;;;;;0.30;48.21;99346.63;4473455;32;20121;-87
2021/12/21 05:32:10;;;;;;;4.65;1.40;;;;;;;0.39;47.71;99349.19;4473382;32;20420;-90
2021/12/21 05:34:35;;;;;;;5.90;1.42;;;;;;;0.46;47.68;99352.59;4487751;32;20096;-90
2021/12/21 05:37:05;;;;;;;5.15;1.20;;;;;;;0.43;47.73;99347.47;4487678;32;20104;-90
2021/12/21 05:39:39;;;;;;;4.30;1.23;;;;;;;0.75;46.99;99345.56;4474125;32;20151;-90
2021/12/21 05:42:06;;;;;;;3.97;1.20;;;;;;;0.89;46.96;99350.66;4473247;32;20111;-90
2021/12/21 05:44:31;;;;;;;4.35;1.15;;;;;;;0.75;46.61;99347.25;4487696;32;20494;-90
2021/12/21 05:46:57;;;;;;;7.22;1.50;;;;;;;0.79;46.54;99356.75;4473106;32;20111;-91
2021/12/21 05:49:22;;;;;;;4.68;1.08;;;;;;;0.58;46.49;99355.16;4487658;32;20096;-90
2021/12/21 05:51:48;;;;;;;4.05;1.30;;;;;;;0.59;46.37;99349.94;4473278;32;20147;-90
2021/12/21 05:54:15;;;;;;;4.97;1.40;;;;;;;0.61;46.19;99357.72;4487755;32;20115;-90
2021/12/21 05:56:41;;;;;;;4.12;1.17;;;;;;;0.55;45.91;99352.56;4473437;32;20092;-90
2021/12/21 05:59:06;;;;;;;4.80;1.35;;;;;;;0.37;45.82;99361.31;4473281;32;20441;-87
2021/12/21 06:01:33;;;;;;;6.15;1.17;;;;;;;0.63;45.60;99375.87;4487417;32;20150;-90
2021/12/21 06:04:00;;;;;;;5.25;1.35;;;;;;;0.60;45.73;99366.38;4473263;32;20084;-89
2021/12/21 06:06:26;;;;;;;6.87;1.10;;;;;;;0.45;45.62;99376.81;4473046;32;20080;-91
2021/12/21 06:08:53;;;;;;;4.93;1.30;;;;;;;0.41;45.40;99377.69;4487602;32;20131;-91
2021/12/21 06:11:21;;;;;;;4.45;1.20;;;;;;;0.47;45.54;99367.31;4473414;32;20104;-91
2021/12/21 06:14:07;;;;;;;2.30;0.98;;;;;;;0.46;45.36;99386.31;4487491;32;20096;-89
2021/12/21 06:27:41;;;;;;;3.37;1.10;;;;;;;0.58;44.52;99410.47;4438296;32;20167;-88
2021/12/21 06:30:07;;;;;;;5.70;1.33;;;;;;;0.61;44.63;99416.50;4438210;32;20122;-89
2021/12/21 06:32:33;;;;;;;4.50;1.40;;;;;;;0.64;44.51;99406.97;4444083;32;20136;-86
2021/12/21 06:34:58;;;;;;;4.07;1.12;;;;;;;0.58;44.92;99418.25;4445862;32;20184;-87
2021/12/21 06:37:24;;;;;;;3.33;1.15;;;;;;;0.83;44.20;99409.47;4451159;32;20123;-87
2021/12/21 06:39:50;;;;;;;2.78;1.05;;;;;;;1.02;43.89;99407.63;4427781;32;20473;-88
2021/12/21 06:42:16;;;;;;;4.05;1.08;;;;;;;0.73;44.05;99419.88;4432377;32;20104;-83
2021/12/21 06:44:44;;;;;;;2.75;1.20;;;;;;;0.75;44.63;99417.28;4445233;32;20104;-83
2021/12/21 06:52:38;;;;;;;5.95;1.20;;;;;;;1.03;44.97;99417.16;4434252;32;20147;-82
2021/12/21 06:55:05;;;;;;;2.22;1.10;;;;;;;0.62;45.76;99426.88;4444467;32;20181;-82
2021/12/21 06:57:31;;;;;;;3.90;1.33;;;;;;;1.00;45.54;99425.81;4444064;32;20179;-83
2021/12/21 06:59:56;;;;;;;4.85;1.50;;;;;;;1.18;45.01;99425.72;4445195;32;20124;-82
2021/12/21 07:02:22;;;;;;;4.05;1.05;;;;;;;1.09;45.33;99428.34;4473171;31;20427;-81
2021/12/21 07:04:48;;;;;;;4.60;1.10;;;;;;;1.00;45.54;99432.72;4486498;31;20110;-80
2021/12/21 07:07:16;;;;;;;3.47;1.10;;;;;;;1.18;45.45;99427.44;4486455;32;20111;-89
2021/12/21 07:09:44;;;;;;;3.78;1.10;;;;;;;0.95;45.89;99431.03;4478037;32;20147;-85
2021/12/21 07:12:29;;;;;;;5.00;1.35;;;;;;;0.80;46.30;99428.50;4486353;31;20476;-85
2021/12/21 07:20:22;;;;;;;4.25;1.10;;;;;;;1.05;46.10;99437.03;4486058;32;20177;-84
2021/12/21 07:22:48;;;;;;;3.20;1.12;;;;;;;1.13;45.83;99434.38;4479292;31;20500;-87
2021/12/21 07:25:13;;;;;;;4.95;1.40;;;;;;;1.12;45.73;99436.13;4479230;31;20100;-88
2021/12/21 07:27:39;;;;;;;6.40;1.73;;;;;;;1.04;45.62;99437.03;4486609;32;20093;-88
2021/12/21 07:30:06;;;;;;;2.95;1.10;;;;;;;0.85;46.23;99444.94;4472478;32;20120;-88
2021/12/21 07:32:31;;;;;;;4.27;1.27;;;;;;;1.20;45.75;99435.19;4471943;32;20116;-87
2021/12/21 07:34:57;;;;;;;3.22;1.05;;;;;;;1.34;45.28;99452.41;4486727;32;20191;-88
2021/12/21 07:37:25;;;;;;;5.15;1.40;;;;;;;0.94;45.99;99441.41;4478221;31;20092;-88
2021/12/21 07:39:51;;;;;;;6.03;1.50;;;;;;;1.13;46.13;99444.78;4486329;31;20097;-88
2021/12/21 07:42:17;;;;;;;5.10;1.35;;;;;;;1.30;45.63;99437.75;4482284;32;20505;-90
2021/12/21 07:44:42;;;;;;;6.25;1.40;;;;;;;1.26;45.91;99440.38;4471961;32;20740;-90
2021/12/21 07:47:08;;;;;;;7.10;1.20;;;;;;;1.41;45.42;99444.59;4480576;31;20214;-90
2021/12/21 07:49:33;;;;;;;5.25;1.50;;;;;;;1.53;45.42;99447.09;4481073;32;20341;-87
2021/12/21 07:51:59;;;;;;;5.07;1.17;;;;;;;1.63;45.02;99442.72;4486701;32;20085;-90
2021/12/21 07:54:24;;;;;;;7.72;1.50;;;;;;;1.65;44.82;99448.75;4486482;32;20089;-87
2021/12/21 07:56:50;;;;;;;6.68;1.45;;;;;;;1.66;45.27;99443.56;4486445;31;20096;-87
2021/12/21 07:59:16;;;;;;;6.65;1.30;;;;;;;1.77;45.13;99446.03;4486512;32;20120;-87
2021/12/21 08:01:42;;;;;;;6.35;1.40;;;;;;;1.47;45.16;99454.91;4472127;32;20084;-87
2021/12/21 08:04:08;;;;;;;3.35;1.12;;;;;;;1.77;44.46;99441.69;4472238;32;20461;-87
2021/12/21 08:06:35;;;;;;;4.72;1.30;;;;;;;1.73;44.52;99442.59;4472019;32;20399;-87
2021/12/21 08:09:02;;;;;;;5.32;1.60;;;;;;;1.64;45.12;99447.00;4486440;32;20101;-87
2021/12/21 08:12:10;;;;;;;4.25;1.05;;;;;;;1.75;44.86;99446.03;4486329;32;20691;-87
2021/12/21 08:14:13;;;;;;;5.80;1.40;;;;;;;1.84;45.15;99444.28;4486351;32;20171;-87
2021/12/21 08:16:38;;;;;;;5.22;1.35;;;;;;;1.80;45.23;99450.34;4486466;32;20087;-87
2021/12/21 08:19:04;;;;;;;5.03;1.33;;;;;;;1.82;45.17;99440.81;4486275;32;20162;-87
2021/12/21 08:21:30;;;;;;;5.25;1.10;;;;;;;1.78;45.18;99450.38;4486318;32;20102;-87
2021/12/21 08:23:56;;;;;;;4.97;1.05;;;;;;;1.90;44.99;99447.66;4486100;32;20092;-87
2021/12/21 08:26:22;;;;;;;4.68;1.20;;;;;;;2.04;44.68;99441.47;4486177;32;20106;-87
2021/12/21 08:28:47;;;;;;;5.82;1.40;;;;;;;1.90;45.20;99447.66;4486564;32;20169;-87
2021/12/21 08:31:13;;;;;;;4.87;1.55;;;;;;;1.93;45.47;99447.66;4486015;32;20124;-87
2021/12/21 08:33:39;;;;;;;4.82;1.35;;;;;;;1.86;46.09;99439.91;4486296;32;20100;-87
2021/12/21 08:36:05;;;;;;;7.22;1.60;;;;;;;1.70;46.83;99444.34;4485994;32;20084;-87
2021/12/21 08:38:32;;;;;;;6.93;1.67;;;;;;;2.16;46.21;99450.03;4486072;32;20444;-87
2021/12/21 08:40:59;;;;;;;8.23;1.48;;;;;;;2.32;45.99;99452.47;4471885;32;20112;-87
2021/12/21 08:43:27;;;;;;;6.27;1.50;;;;;;;2.10;46.65;99459.59;4486176;32;20115;-87
2021/12/21 08:45:54;;;;;;;6.25;1.40;;;;;;;2.42;46.21;99461.03;4487920;32;20172;-87
2021/12/21 08:48:22;;;;;;;6.43;1.50;;;;;;;2.62;45.64;99461.66;4488371;32;20754;-87
2021/12/21 08:50:48;;;;;;;5.35;1.70;;;;;;;2.38;46.05;99460.22;4488523;32;20145;-87
2021/12/21 08:53:14;;;;;;;4.35;1.45;;;;;;;2.21;46.64;99456.91;4488421;32;20478;-87
2021/12/21 08:55:41;;;;;;;6.07;1.60;;;;;;;1.86;47.71;99463.31;4473956;32;20114;-87
2021/12/21 08:58:07;;;;;;;4.90;1.52;;;;;;;1.96;48.11;99463.19;4488211;32;20088;-87
2021/12/21 09:00:33;;;;;;;7.12;1.60;;;;;;;1.94;47.66;99471.88;4488156;32;20144;-87
2021/12/21 09:02:58;;;;;;;6.15;1.65;;;;;;;2.05;47.80;99471.78;4488242;32;20325;-87
2021/12/21 09:05:27;;;;;;;6.40;1.55;;;;;;;2.08;47.78;99471.75;4488091;32;20088;-87
2021/12/21 09:07:53;;;;;;;5.87;1.45;;;;;;;1.90;48.36;99473.66;4488126;32;20141;-88
2021/12/21 09:10:20;;;;;;;5.85;1.80;;;;;;;2.34;47.67;99474.97;4488209;32;20123;-87
2021/12/21 09:12:48;;;;;;;8.15;1.67;;;;;;;2.29;47.59;99476.75;4488232;32;20091;-88
2021/12/21 09:15:14;;;;;;;5.55;1.60;;;;;;;2.22;48.12;99476.81;4487941;32;20238;-88
2021/12/21 09:17:41;;;;;;;6.65;1.70;;;;;;;1.96;48.78;99488.31;4487846;32;20092;-87
2021/12/21 09:20:08;;;;;;;6.87;1.62;;;;;;;2.26;48.59;99479.41;4487828;32;20459;-87
2021/12/21 09:22:34;;;;;;;6.40;1.65;;;;;;;2.27;48.45;99486.31;4487879;32;20114;-87
2021/12/21 09:24:59;;;;;;;6.30;1.48;;;;;;;2.26;48.18;99476.78;4487715;32;20088;-87
2021/12/21 09:27:26;;;;;;;6.53;1.62;;;;;;;2.54;47.41;99469.56;4487749;32;20132;-87
2021/12/21 09:29:51;;;;;;;5.97;1.60;;;;;;;2.25;47.82;99469.00;4487722;32;20119;-87
2021/12/21 09:32:18;;;;;;;10.25;1.45;;;;;;;2.46;47.22;99465.31;4473531;32;20088;-87
2021/12/21 09:34:44;;;;;;;7.65;1.55;;;;;;;2.82;46.70;99464.03;4487766;32;20414;-87
2021/12/21 09:37:15;;;;;;;5.12;1.48;;;;;;;2.58;47.18;99464.31;4487722;32;20100;-87
2021/12/21 09:39:45;;;;;;;4.90;1.37;;;;;;;2.54;47.17;99466.09;4487878;32;20114;-87
2021/12/21 09:42:13;;;;;;;4.18;1.42;;;;;;;2.48;47.64;99474.81;4488071;32;20079;-87
2021/12/21 09:44:39;;;;;;;6.18;1.70;;;;;;;2.41;47.93;99469.69;4487775;32;20469;-88
2021/12/21 09:47:06;;;;;;;6.60;1.52;;;;;;;2.51;47.84;99469.59;4487778;32;20103;-87
2021/12/21 09:49:32;;;;;;;5.12;1.60;;;;;;;2.56;47.79;99464.34;4487837;32;20151;-87
2021/12/21 09:51:57;;;;;;;6.78;1.83;;;;;;;2.56;47.75;99462.59;4487890;32;20119;-87
2021/12/21 09:54:25;;;;;;;5.15;1.30;;;;;;;2.41;48.49;99461.91;4473192;32;20116;-87
2021/12/21 09:56:50;;;;;;;6.07;1.62;;;;;;;2.72;47.79;99458.09;4473513;32;20112;-87
2021/12/21 09:59:15;;;;;;;6.90;1.50;;;;;;;2.74;47.53;99447.66;4487836;32;20333;-87
2021/12/21 10:01:41;;;;;;;6.37;1.60;;;;;;;2.59;48.36;99461.72;4487749;32;20084;-88
2021/12/21 10:04:06;;;;;;;7.20;2.00;;;;;;;2.90;47.97;99451.78;4487798;32;20121;-87
2021/12/21 10:06:43;;;;;;;6.62;2.12;;;;;;;2.97;48.24;99449.09;4487813;32;20123;-87
2021/12/21 10:09:08;;;;;;;6.82;1.80;;;;;;;3.02;48.27;99442.97;4488247;32;20616;-87
2021/12/21 10:11:44;;;;;;;6.82;1.95;;;;;;;3.03;48.58;99447.28;4473356;32;20096;-87
2021/12/21 10:14:10;;;;;;;6.15;1.70;;;;;;;3.08;48.71;99439.41;4487752;32;20076;-87
2021/12/21 10:16:36;;;;;;;5.95;1.77;;;;;;;2.46;49.52;99452.31;4473258;32;20165;-87
2021/12/21 10:19:05;;;;;;;7.95;2.60;;;;;;;2.58;49.57;99448.72;4487448;32;20507;-87
2021/12/21 10:21:31;;;;;;;8.15;2.33;;;;;;;2.59;49.76;99447.81;4487410;32;20118;-87
2021/12/21 10:23:57;;;;;;;7.87;1.92;;;;;;;2.56;50.12;99443.53;4487353;32;20151;-87
2021/12/21 10:26:29;;;;;;;8.85;2.17;;;;;;;2.99;49.33;99448.19;4487314;32;20104;-87
2021/12/21 10:29:00;;;;;;;7.75;1.95;;;;;;;2.63;50.18;99439.13;4487465;32;20095;-87
2021/12/21 10:31:28;;;;;;;9.13;2.83;;;;;;;2.39;50.68;99443.72;4487455;32;20138;-87
2021/12/21 10:33:56;;;;;;;8.90;2.58;;;;;;;2.62;50.43;99442.59;4487661;32;20100;-87
2021/12/21 10:36:23;;;;;;;7.65;2.10;;;;;;;3.00;49.63;99436.91;4487285;32;20160;-87
2021/12/21 10:38:52;;;;;;;7.10;2.10;;;;;;;3.10;49.13;99429.84;4473141;32;20134;-87
2021/12/21 10:41:27;;;;;;;6.62;1.85;;;;;;;2.90;49.32;99430.13;4487202;32;20096;-87
2021/12/21 10:44:08;;;;;;;6.05;1.73;;;;;;;2.92;48.15;99433.56;4487311;32;20099;-87
2021/12/21 10:46:36;;;;;;;8.25;2.33;;;;;;;3.23;47.91;99422.72;4487123;32;20091;-87
2021/12/21 10:49:05;;;;;;;8.27;2.50;;;;;;;2.85;49.26;99426.72;4473006;32;20091;-87
2021/12/21 10:51:31;;;;;;;8.50;2.60;;;;;;;2.62;50.32;99425.25;4487273;32;20149;-87
2021/12/21 10:53:56;;;;;;;7.70;2.58;;;;;;;2.85;49.94;99411.94;4487143;32;20092;-87
2021/12/21 10:56:22;;;;;;;6.80;2.33;;;;;;;2.71;50.56;99412.13;4487175;32;20124;-87
2021/12/21 10:58:47;;;;;;;9.98;2.80;;;;;;;3.01;49.76;99404.78;4472936;32;20140;-87
2021/12/21 11:01:20;;;;;;;9.07;2.67;;;;;;;2.87;49.77;99407.59;4487388;32;20398;-87
2021/12/21 11:03:54;;;;;;;9.38;2.80;;;;;;;3.13;49.34;99411.59;4472799;32;20110;-87
2021/12/21 11:06:27;;;;;;;9.63;2.80;;;;;;;2.91;49.96;99401.44;4486003;32;20467;-87
2021/12/21 11:08:54;;;;;;;8.38;2.53;;;;;;;2.95;50.06;99407.47;4487098;32;20201;-87
2021/12/21 11:11:33;;;;;;;9.88;2.90;;;;;;;2.96;50.07;99401.41;4487081;32;20380;-87
2021/12/21 11:14:04;;;;;;;8.82;2.70;;;;;;;3.29;49.08;99396.59;4472765;32;20080;-87
2021/12/21 11:16:50;;;;;;;8.13;3.00;;;;;;;2.99;49.21;99392.69;4487070;32;20201;-87
2021/12/21 11:19:20;;;;;;;8.82;3.00;;;;;;;2.83;49.61;99397.25;4487065;32;20096;-87
2021/12/21 11:21:46;;;;;;;9.00;2.90;;;;;;;2.80;49.26;99385.16;4472786;32;20451;-86
2021/12/21 11:24:14;;;;;;;7.93;2.60;;;;;;;3.04;48.53;99388.28;4486868;32;20081;-87
2021/12/21 11:26:41;;;;;;;8.45;2.92;;;;;;;3.07;48.26;99386.50;4487003;32;20131;-87
2021/12/21 11:29:09;;;;;;;9.60;3.22;;;;;;;2.84;48.67;99380.72;4486922;32;20448;-87
2021/12/21 11:31:40;;;;;;;9.85;3.05;;;;;;;2.81;49.45;99386.00;4486796;32;20087;-87
2021/12/21 11:34:09;;;;;;;12.25;3.42;;;;;;;2.83;48.71;99384.22;4472520;32;20083;-87
2021/12/21 11:39:20;;;;;;;9.38;2.75;;;;;;;2.77;48.39;99389.53;4474914;32;20153;-87
2021/12/21 11:41:46;;;;;;;9.75;3.20;;;;;;;2.82;48.68;99379.91;4472517;32;20100;-87
2021/12/21 11:44:50;;;;;;;9.63;2.92;;;;;;;3.11;47.90;99382.09;4486692;32;20079;-87
2021/12/21 11:47:18;;;;;;;8.82;2.70;;;;;;;2.78;48.57;99383.44;4483495;32;20181;-88
2021/12/21 11:50:00;;;;;;;10.10;2.97;;;;;;;3.31;47.59;99380.06;4486930;32;20119;-87
2021/12/21 11:52:28;;;;;;;8.70;3.00;;;;;;;2.78;48.09;99381.69;4487047;32;20096;-87
2021/12/21 11:55:14;;;;;;;7.95;2.60;;;;;;;2.64;48.85;99378.41;4472824;32;20107;-87
2021/12/21 11:57:51;;;;;;;8.15;2.50;;;;;;;2.72;48.50;99381.75;4486615;32;20499;-87
2021/12/21 12:00:21;;;;;;;8.15;2.45;;;;;;;2.51;47.94;99378.56;4486518;32;20092;-87
2021/12/21 12:02:47;;;;;;;9.07;2.65;;;;;;;2.39;48.63;99364.84;4472151;32;20443;-87
2021/12/21 12:05:26;;;;;;;6.50;2.10;;;;;;;2.27;48.47;99366.72;4486326;32;20126;-87
2021/12/21 12:07:58;;;;;;;;;;;;;;;2.79;47.40;99369.56;4486830;32;20104;-87
2021/12/21 12:10:24;;;;;;;11.73;2.20;;;;;;;2.67;47.53;99360.19;4486507;32;19994;-87
2021/12/21 12:12:49;;;;;;;9.73;2.62;;;;;;;2.71;47.66;99367.06;4486203;32;20132;-87
2021/12/21 12:15:15;;;;;;;9.38;2.70;;;;;;;2.61;48.00;99374.13;4486521;32;20076;-87
2021/12/21 12:17:45;;;;;;;9.35;2.78;;;;;;;2.87;47.73;99371.16;4486548;32;20134;-87
2021/12/21 12:20:11;;;;;;;8.18;2.20;;;;;;;2.93;47.48;99376.25;4474109;32;20460;-87
2021/12/21 12:22:45;;;;;;;7.68;2.25;;;;;;;2.73;47.60;99371.34;4473983;32;20156;-87
2021/12/21 12:25:23;;;;;;;7.47;2.17;;;;;;;2.87;46.92;99370.28;4488216;32;20560;-87
2021/12/21 12:27:51;;;;;;;9.10;2.62;;;;;;;3.05;46.83;99370.03;4488249;32;20100;-87
2021/12/21 12:30:18;;;;;;;;;;;;;;;2.94;47.32;99377.16;4488583;32;20486;-87
2021/12/21 12:32:47;;;;;;;7.32;1.87;;;;;;;3.17;46.15;99366.41;4488171;32;19979;-87
2021/12/21 12:35:18;;;;;;;8.00;2.10;;;;;;;3.07;45.79;99364.78;4473862;32;20115;-87
2021/12/21 12:37:54;;;;;;;7.30;2.17;;;;;;;2.90;46.44;99371.13;4474013;32;20510;-87
2021/12/21 12:40:24;;;;;;;8.23;2.05;;;;;;;2.99;46.46;99371.88;4488234;32;20671;-87